Sefton, New Zealand
Current Conditions -  °F | °C
As of 9:00 PM on Thursday 29 Jan 2015 (Local Time) from NZCH Reporting Station
Scattered Clouds Scattered Clouds  
Wind Chill: 64°   Ceiling: Unl
Heat Index: 64°   Visibility: 6mi
Dew Point: 59°   Wind: 12mph
Humidity: 83%   Direction: 60°ENE
Pressure: 29.97"   Gusts: NA
Location:  43.25°S, 172.67°E
Report Text: NZCH 290800Z AUTO 06010KT 9999 SCT013/// 18/15 Q1015 BECMGBKN013
Loading
Personal Weather Stations






























Interactive Weather Map New forecast layout! Learn more

10-Day Weather Forecast

Advertisements
Track Severe Weather on mobile